Fairground, Vermont
Current Conditions -  °F | °C
As of 3:15 AM on Monday 24 Nov 2014 (Local Time) from KFSO Reporting Station
Clear Clear  
Wind Chill: 40°   Ceiling: Unl
Heat Index: 43°   Visibility: 10mi
Dew Point: 38°   Wind: 6mph
Humidity: 82%   Direction: 120°ESE
Pressure: 29.78"   Gusts: NA
Location:  44.8776°N, 72.9201°W
Report Text: KFSO 240815Z AUTO 12005KT 10SM CLR 06/03 A2978 RMK AO2 T00620033
Loading
Personal Weather Stations






























Interactive Weather Map New forecast layout! Learn more

10-Day Weather Forecast

Advertisements
Track Severe Weather on mobile